createdAt,value
2017-12-25T00:00:39.401Z,726.80
2017-12-25T00:01:39.876Z,726.64
2017-12-25T00:02:40.351Z,726.65
2017-12-25T00:03:40.825Z,726.61
2017-12-25T00:05:41.760Z,726.72
2017-12-25T00:06:42.250Z,726.72
2017-12-25T00:07:42.722Z,726.68
2017-12-25T00:08:43.197Z,726.72
2017-12-25T00:10:44.146Z,726.54
2017-12-25T00:11:44.622Z,726.53
2017-12-25T00:12:45.080Z,726.64
2017-12-25T00:13:45.568Z,726.48
2017-12-25T00:14:46.046Z,726.56
2017-12-25T00:15:46.517Z,726.62
2017-12-25T00:16:46.978Z,726.62
2017-12-25T00:17:47.465Z,726.40
2017-12-25T00:18:47.942Z,726.47
2017-12-25T00:19:48.415Z,726.59
2017-12-25T00:20:48.884Z,726.53
2017-12-25T00:21:49.364Z,726.65
2017-12-25T00:22:49.839Z,726.62
2017-12-25T00:23:50.299Z,726.60
2017-12-25T00:25:51.261Z,726.58
2017-12-25T00:28:52.684Z,726.50
2017-12-25T00:29:53.210Z,726.51
2017-12-25T00:30:53.632Z,726.57
2017-12-25T00:31:54.105Z,726.59
2017-12-25T00:32:54.586Z,726.61
2017-12-25T00:33:55.054Z,726.55
2017-12-25T00:34:55.516Z,726.62
2017-12-25T00:36:56.479Z,726.49
2017-12-25T00:37:56.952Z,726.62
2017-12-25T00:38:57.426Z,726.58
2017-12-25T00:39:57.903Z,726.60
2017-12-25T00:40:58.375Z,726.45
2017-12-25T00:41:58.838Z,726.51
2017-12-25T00:42:59.327Z,726.49
2017-12-25T00:43:59.803Z,726.60
2017-12-25T00:45:00.325Z,726.45
2017-12-25T00:46:00.734Z,726.52
2017-12-25T00:47:01.223Z,726.44
2017-12-25T00:48:01.696Z,726.36
2017-12-25T00:49:02.169Z,726.59
2017-12-25T00:50:02.644Z,726.42
2017-12-25T00:51:03.118Z,726.39
2017-12-25T00:52:03.592Z,726.54
2017-12-25T00:53:04.054Z,726.45
2017-12-25T00:54:04.546Z,726.41
2017-12-25T00:55:05.016Z,726.47
2017-12-25T00:56:05.488Z,726.45
2017-12-25T00:57:05.964Z,726.46
2017-12-25T00:58:06.439Z,726.37
2017-12-25T00:59:06.913Z,726.47
2017-12-25T01:00:07.425Z,726.52
2017-12-25T01:01:07.861Z,726.51
2017-12-25T01:02:08.336Z,726.47
2017-12-25T01:03:08.808Z,726.41
2017-12-25T01:04:09.273Z,726.35
2017-12-25T01:06:10.233Z,726.48
2017-12-25T01:08:11.186Z,726.43
2017-12-25T01:09:11.657Z,726.46
2017-12-25T01:11:12.591Z,726.45
2017-12-25T01:12:13.080Z,726.45
2017-12-25T01:13:13.552Z,726.36
2017-12-25T01:15:14.507Z,726.46
2017-12-25T01:16:15.027Z,726.50
2017-12-25T01:18:15.926Z,726.48
2017-12-25T01:19:16.401Z,726.43
2017-12-25T01:22:17.816Z,726.43
2017-12-25T01:23:18.297Z,726.41
2017-12-25T01:24:18.771Z,726.38
2017-12-25T01:25:19.246Z,726.37
2017-12-25T01:27:20.194Z,726.37
2017-12-25T01:28:20.692Z,726.47
2017-12-25T01:29:21.134Z,726.40
2017-12-25T01:30:21.619Z,726.47
2017-12-25T01:31:22.093Z,726.44
2017-12-25T01:32:22.619Z,726.44
2017-12-25T01:33:23.029Z,726.50
2017-12-25T01:34:23.517Z,726.42
2017-12-25T01:35:23.993Z,726.44
2017-12-25T01:36:24.469Z,726.53
2017-12-25T01:38:25.416Z,726.49
2017-12-25T01:40:26.350Z,726.43
2017-12-25T01:42:27.313Z,726.45
2017-12-25T01:44:28.271Z,726.35
2017-12-25T01:45:28.737Z,726.30
2017-12-25T01:46:29.547Z,726.28
2017-12-25T01:47:29.679Z,726.31
2017-12-25T01:48:30.211Z,726.20
2017-12-25T01:50:31.111Z,726.34
2017-12-25T01:51:31.571Z,726.34
2017-12-25T01:52:32.058Z,726.31
2017-12-25T01:53:32.533Z,726.24
2017-12-25T01:54:33.008Z,726.31
2017-12-25T01:55:33.481Z,726.24
2017-12-25T01:56:33.957Z,726.28
2017-12-25T01:57:34.431Z,726.30
2017-12-25T01:58:34.891Z,726.34
2017-12-25T01:59:35.380Z,726.37
2017-12-25T02:00:35.856Z,726.43
2017-12-25T02:01:36.330Z,726.32
2017-12-25T02:02:36.790Z,726.29
2017-12-25T02:03:37.279Z,726.34
2017-12-25T02:04:37.752Z,726.31
2017-12-25T02:05:38.229Z,726.37
2017-12-25T02:07:39.176Z,726.40
2017-12-25T02:08:39.702Z,726.38
2017-12-25T02:09:40.111Z,726.36
2017-12-25T02:10:40.603Z,726.42
2017-12-25T02:11:41.076Z,726.37
2017-12-25T02:12:41.550Z,726.42
2017-12-25T02:14:42.499Z,726.43
2017-12-25T02:15:42.975Z,726.43
2017-12-25T02:16:43.436Z,726.37
2017-12-25T02:17:43.923Z,726.45
2017-12-25T02:18:44.396Z,726.47
2017-12-25T02:20:45.333Z,726.45
2017-12-25T02:21:45.820Z,726.52
2017-12-25T02:22:46.299Z,726.51
2017-12-25T02:23:46.822Z,726.51
2017-12-25T02:24:47.246Z,726.50
2017-12-25T02:25:47.718Z,726.36
2017-12-25T02:26:48.196Z,726.40
2017-12-25T02:27:48.655Z,726.41
2017-12-25T02:28:49.144Z,726.38
2017-12-25T02:30:50.095Z,726.37
2017-12-25T02:31:50.572Z,726.31
2017-12-25T02:32:51.043Z,726.40
2017-12-25T02:34:51.990Z,726.23
2017-12-25T02:35:52.467Z,726.31
2017-12-25T02:36:52.946Z,726.24
2017-12-25T02:37:53.421Z,726.25
2017-12-25T02:38:53.877Z,726.29
2017-12-25T02:40:05.991Z,726.32
2017-12-25T02:40:54.840Z,726.29
2017-12-25T02:41:55.317Z,726.33
2017-12-25T02:42:55.791Z,726.23
2017-12-25T02:43:56.268Z,726.26
2017-12-25T02:44:56.790Z,726.30
2017-12-25T02:45:57.201Z,726.26
2017-12-25T02:46:57.690Z,726.26
2017-12-25T02:47:58.165Z,726.24
2017-12-25T02:48:58.642Z,726.15
2017-12-25T02:49:59.103Z,726.28
2017-12-25T02:50:59.589Z,726.15
2017-12-25T02:52:00.066Z,726.20
2017-12-25T02:53:00.537Z,726.16
2017-12-25T02:54:01.014Z,726.14
2017-12-25T02:55:01.538Z,726.14
2017-12-25T02:56:01.964Z,726.07
2017-12-25T02:57:02.425Z,726.01
2017-12-25T02:58:02.911Z,726.11
2017-12-25T02:59:03.385Z,726.16
2017-12-25T03:02:04.809Z,726.04
2017-12-25T03:04:05.747Z,726.07
2017-12-25T03:05:06.235Z,726.04
2017-12-25T03:06:06.717Z,725.97
2017-12-25T03:07:07.171Z,725.93
2017-12-25T03:08:07.658Z,725.97
2017-12-25T03:09:08.134Z,725.99
2017-12-25T03:10:08.609Z,726.00
2017-12-25T03:12:09.559Z,725.99
2017-12-25T03:13:10.034Z,725.97
2017-12-25T03:14:10.494Z,725.92
2017-12-25T03:16:11.457Z,725.96
2017-12-25T03:17:11.931Z,725.96
2017-12-25T03:19:12.882Z,725.97
2017-12-25T03:20:13.356Z,725.83
2017-12-25T03:21:13.882Z,725.92
2017-12-25T03:22:14.305Z,725.91
2017-12-25T03:23:14.780Z,725.87
2017-12-25T03:24:15.255Z,725.85
2017-12-25T03:25:15.731Z,725.77
2017-12-25T03:26:16.204Z,725.84
2017-12-25T03:27:16.679Z,725.74
2017-12-25T03:28:17.155Z,725.81
2017-12-25T03:29:17.630Z,725.78
2017-12-25T03:30:18.106Z,725.88
2017-12-25T03:31:18.565Z,725.84
2017-12-25T03:32:19.054Z,725.92
2017-12-25T03:34:20.003Z,725.93
2017-12-25T03:35:20.480Z,725.90
2017-12-25T03:37:21.429Z,725.61
2017-12-25T03:38:21.892Z,725.76
2017-12-25T03:39:22.382Z,725.71
2017-12-25T03:40:22.852Z,725.84
2017-12-25T03:41:23.315Z,725.86
2017-12-25T03:42:23.801Z,725.84
2017-12-25T03:43:24.277Z,725.84
2017-12-25T03:44:24.752Z,725.79
2017-12-25T03:45:25.227Z,725.77
2017-12-25T03:47:26.177Z,725.77
2017-12-25T03:48:26.637Z,725.90
2017-12-25T03:50:27.600Z,725.73
2017-12-25T03:51:28.076Z,725.83
2017-12-25T03:52:28.536Z,725.72
2017-12-25T03:53:29.026Z,725.64
2017-12-25T03:54:29.540Z,725.73
2017-12-25T03:55:29.974Z,725.76
2017-12-25T03:57:30.925Z,725.76
2017-12-25T03:58:31.399Z,725.80
2017-12-25T03:59:31.861Z,725.84
2017-12-25T04:00:32.349Z,725.87
2017-12-25T04:01:32.809Z,725.73
2017-12-25T04:02:33.347Z,725.78
2017-12-25T04:03:33.775Z,725.90
2017-12-25T04:04:34.247Z,725.79
2017-12-25T04:05:34.725Z,725.75
2017-12-25T04:06:35.198Z,725.76
2017-12-25T04:08:36.132Z,725.78
2017-12-25T04:09:36.622Z,725.68
2017-12-25T04:10:37.084Z,725.70
2017-12-25T04:11:37.570Z,725.79
2017-12-25T04:12:38.047Z,725.66
2017-12-25T04:13:38.509Z,725.67
2017-12-25T04:14:38.999Z,725.83
2017-12-25T04:16:39.945Z,725.85
2017-12-25T04:17:40.419Z,725.80
2017-12-25T04:18:40.896Z,725.71
2017-12-25T04:19:41.369Z,725.73
2017-12-25T04:20:41.843Z,725.87
2017-12-25T04:21:42.365Z,725.73
2017-12-25T04:22:42.842Z,725.75
2017-12-25T04:23:43.273Z,725.83
2017-12-25T04:24:43.742Z,725.81
2017-12-25T04:25:44.218Z,725.74
2017-12-25T04:27:45.218Z,725.81
2017-12-25T04:28:45.628Z,725.76
2017-12-25T04:30:46.577Z,725.75
2017-12-25T04:31:47.065Z,725.87
2017-12-25T04:32:47.540Z,725.75
2017-12-25T04:33:48.016Z,725.64
2017-12-25T04:35:48.964Z,725.50
2017-12-25T04:36:49.443Z,725.96
2017-12-25T04:38:50.388Z,725.54
2017-12-25T04:39:50.863Z,725.76
2017-12-25T04:40:51.338Z,725.83
2017-12-25T04:43:52.763Z,725.70
2017-12-25T04:44:53.226Z,725.45
2017-12-25T04:45:53.712Z,725.71
2017-12-25T04:46:54.186Z,725.70
2017-12-25T04:48:55.122Z,725.75
2017-12-25T04:49:55.609Z,725.72
2017-12-25T04:50:56.085Z,725.69
2017-12-25T04:51:56.559Z,725.80
2017-12-25T04:52:57.036Z,725.75
2017-12-25T04:54:09.134Z,725.88
2017-12-25T04:54:57.984Z,725.74
2017-12-25T04:55:58.459Z,725.71
2017-12-25T04:56:58.935Z,725.72
2017-12-25T04:57:59.411Z,725.63
2017-12-25T04:58:59.933Z,725.65
2017-12-25T05:00:00.361Z,725.68
2017-12-25T05:01:00.833Z,725.74
2017-12-25T05:02:01.295Z,725.59
2017-12-25T05:03:01.784Z,725.74
2017-12-25T05:04:02.257Z,725.86
2017-12-25T05:05:02.732Z,725.78
2017-12-25T05:06:03.207Z,725.66
2017-12-25T05:07:03.667Z,725.77
2017-12-25T05:08:04.149Z,725.63
2017-12-25T05:10:05.107Z,725.70
2017-12-25T05:11:05.583Z,725.60
2017-12-25T05:12:06.046Z,725.57
2017-12-25T05:14:07.042Z,725.42
2017-12-25T05:15:07.480Z,725.58
2017-12-25T05:16:07.956Z,725.71
2017-12-25T05:17:08.432Z,725.59
2017-12-25T05:18:08.906Z,725.56
2017-12-25T05:19:09.430Z,725.59
2017-12-25T05:20:09.853Z,725.56
2017-12-25T05:21:10.329Z,725.56
2017-12-25T05:22:10.791Z,725.41
2017-12-25T05:23:11.281Z,725.41
2017-12-25T05:24:11.754Z,725.70
2017-12-25T05:25:12.226Z,725.64
2017-12-25T05:26:12.704Z,725.75
2017-12-25T05:27:13.178Z,725.48
2017-12-25T05:28:13.656Z,725.76
2017-12-25T05:29:26.159Z,725.53
2017-12-25T05:31:15.077Z,725.59
2017-12-25T05:32:15.558Z,725.65
2017-12-25T05:33:16.027Z,725.69
2017-12-25T05:34:16.488Z,725.59
2017-12-25T05:35:16.977Z,725.64
2017-12-25T05:36:17.451Z,725.56
2017-12-25T05:37:17.928Z,725.53
2017-12-25T05:38:18.388Z,725.58
2017-12-25T05:39:30.146Z,725.74
2017-12-25T05:40:19.350Z,725.53
2017-12-25T05:41:19.825Z,725.73
2017-12-25T05:42:20.302Z,725.63
2017-12-25T05:43:20.778Z,725.77
2017-12-25T05:44:21.251Z,725.64
2017-12-25T05:45:21.712Z,725.77
2017-12-25T05:46:22.201Z,725.68
2017-12-25T05:48:23.136Z,725.70
2017-12-25T05:49:23.676Z,725.71
2017-12-25T05:50:24.100Z,725.71
2017-12-25T05:51:24.575Z,725.73
2017-12-25T05:52:25.048Z,725.74
2017-12-25T05:53:25.523Z,725.78
2017-12-25T05:54:25.985Z,725.77
2017-12-25T05:55:26.473Z,725.63
2017-12-25T05:57:27.422Z,725.61
2017-12-25T05:58:27.885Z,725.67
2017-12-25T05:59:28.423Z,725.68
2017-12-25T06:00:28.845Z,725.64
2017-12-25T06:01:29.322Z,725.63
2017-12-25T06:02:29.796Z,725.64
2017-12-25T06:03:30.271Z,725.69
2017-12-25T06:04:30.745Z,725.70
2017-12-25T06:05:31.215Z,725.53
2017-12-25T06:07:32.170Z,725.63
2017-12-25T06:08:32.645Z,725.53
2017-12-25T06:09:33.121Z,725.56
2017-12-25T06:10:33.595Z,725.66
2017-12-25T06:11:34.068Z,725.67
2017-12-25T06:12:34.543Z,725.61
2017-12-25T06:13:35.019Z,725.60
2017-12-25T06:14:35.495Z,725.64
2017-12-25T06:15:35.956Z,725.59
2017-12-25T06:16:36.446Z,725.51
2017-12-25T06:17:36.918Z,725.57
2017-12-25T06:19:37.917Z,725.56
2017-12-25T06:20:38.342Z,725.59
2017-12-25T06:21:38.803Z,725.51
2017-12-25T06:23:39.768Z,725.52
2017-12-25T06:25:40.720Z,725.46
2017-12-25T06:26:41.179Z,725.64
2017-12-25T06:27:41.664Z,725.52
2017-12-25T06:28:42.140Z,725.58
2017-12-25T06:29:42.613Z,725.59
2017-12-25T06:30:43.089Z,725.48
2017-12-25T06:32:44.038Z,725.54
2017-12-25T06:34:44.988Z,725.49
2017-12-25T06:35:45.448Z,725.58
2017-12-25T06:36:45.937Z,725.54
2017-12-25T06:37:46.420Z,725.50
2017-12-25T06:38:46.885Z,725.48
2017-12-25T06:39:47.399Z,725.51
2017-12-25T06:40:47.823Z,725.46
2017-12-25T06:41:48.297Z,725.41
2017-12-25T06:42:48.773Z,725.49
2017-12-25T06:43:49.246Z,725.48
2017-12-25T06:44:49.774Z,725.48
2017-12-25T06:45:50.210Z,725.40
2017-12-25T06:47:51.166Z,725.46
2017-12-25T06:48:51.632Z,725.45
2017-12-25T06:49:52.161Z,725.48
2017-12-25T06:50:52.583Z,725.40
2017-12-25T06:51:53.058Z,725.40
2017-12-25T06:52:53.534Z,725.37
2017-12-25T06:53:53.995Z,725.45
2017-12-25T06:54:54.483Z,725.44
2017-12-25T06:56:55.434Z,725.43
2017-12-25T06:57:55.910Z,725.42
2017-12-25T06:58:56.367Z,725.44
2017-12-25T06:59:56.854Z,725.34
2017-12-25T07:01:57.806Z,725.40
2017-12-25T07:03:58.755Z,725.40
2017-12-25T07:04:59.266Z,725.38
2017-12-25T07:05:59.703Z,725.38
2017-12-25T07:07:00.180Z,725.31
2017-12-25T07:08:00.654Z,725.32
2017-12-25T07:09:01.130Z,725.31
2017-12-25T07:10:01.605Z,725.42
2017-12-25T07:11:02.067Z,725.36
2017-12-25T07:12:02.541Z,725.36
2017-12-25T07:13:03.028Z,725.28
2017-12-25T07:15:04.030Z,725.33
2017-12-25T07:16:04.452Z,725.26
2017-12-25T07:17:04.928Z,725.31
2017-12-25T07:18:05.402Z,725.27
2017-12-25T07:19:05.866Z,725.35
2017-12-25T07:21:06.816Z,725.32
2017-12-25T07:22:07.303Z,725.34
2017-12-25T07:23:07.766Z,725.31
2017-12-25T07:24:08.254Z,725.31
2017-12-25T07:25:08.798Z,725.35
2017-12-25T07:26:09.205Z,725.43
2017-12-25T07:27:09.681Z,725.39
2017-12-25T07:28:10.154Z,725.31
2017-12-25T07:29:10.617Z,725.33
2017-12-25T07:30:11.107Z,725.24
2017-12-25T07:31:11.583Z,725.33
2017-12-25T07:32:12.058Z,725.31
2017-12-25T07:33:12.532Z,725.27
2017-12-25T07:34:13.010Z,725.37
2017-12-25T07:35:13.484Z,725.32
2017-12-25T07:36:13.958Z,725.21
2017-12-25T07:37:14.439Z,725.32
2017-12-25T07:38:14.910Z,725.30
2017-12-25T07:39:15.386Z,725.33
2017-12-25T07:40:15.912Z,725.29
2017-12-25T07:41:16.327Z,725.22
2017-12-25T07:42:16.815Z,725.25
2017-12-25T07:44:17.766Z,725.14
2017-12-25T07:45:18.244Z,725.18
2017-12-25T07:46:18.705Z,725.27
2017-12-25T07:47:19.196Z,725.33
2017-12-25T07:48:19.676Z,725.28
2017-12-25T07:49:20.148Z,725.27
2017-12-25T07:50:20.624Z,725.23
2017-12-25T07:51:21.089Z,725.33
2017-12-25T07:52:21.579Z,725.34
2017-12-25T07:53:22.053Z,725.23
2017-12-25T07:54:22.531Z,725.26
2017-12-25T07:55:23.059Z,725.33
2017-12-25T07:56:23.483Z,725.30
2017-12-25T07:57:23.963Z,725.25
2017-12-25T07:58:24.437Z,725.24
2017-12-25T07:59:24.915Z,725.25
2017-12-25T08:00:25.441Z,725.23
2017-12-25T08:01:25.855Z,725.21
2017-12-25T08:02:26.344Z,725.26
2017-12-25T08:03:26.822Z,725.30
2017-12-25T08:04:27.297Z,725.34
2017-12-25T08:05:27.770Z,725.27
2017-12-25T08:07:28.725Z,725.28
2017-12-25T08:08:29.200Z,725.21
2017-12-25T08:09:29.677Z,725.33
2017-12-25T08:11:30.664Z,725.20
2017-12-25T08:12:31.100Z,725.26
2017-12-25T08:13:31.577Z,725.17
2017-12-25T08:14:32.051Z,725.21
2017-12-25T08:15:32.525Z,725.22
2017-12-25T08:16:33.051Z,725.27
2017-12-25T08:17:33.476Z,725.27
2017-12-25T08:18:33.949Z,725.22
2017-12-25T08:19:34.420Z,725.28
2017-12-25T08:20:34.896Z,725.21
2017-12-25T08:23:36.303Z,725.25
2017-12-25T08:24:36.790Z,725.23
2017-12-25T08:25:37.261Z,725.20
2017-12-25T08:26:37.738Z,725.29
2017-12-25T08:28:38.681Z,725.29
2017-12-25T08:29:39.154Z,725.30
2017-12-25T08:30:39.628Z,725.23
2017-12-25T08:31:40.101Z,725.18
2017-12-25T08:33:41.045Z,725.33
2017-12-25T08:34:41.506Z,725.33
2017-12-25T08:35:41.991Z,725.26
2017-12-25T08:36:42.516Z,725.27
2017-12-25T08:39:43.887Z,725.27
2017-12-25T08:40:44.344Z,725.27
2017-12-25T08:41:44.833Z,725.24
2017-12-25T08:42:45.296Z,725.31
2017-12-25T08:44:46.255Z,725.18
2017-12-25T08:45:46.729Z,725.24
2017-12-25T08:46:47.253Z,725.22
2017-12-25T08:48:48.139Z,725.30
2017-12-25T08:49:48.630Z,725.29
2017-12-25T08:50:49.103Z,725.25
2017-12-25T08:51:49.631Z,725.25
2017-12-25T08:52:50.053Z,725.28
2017-12-25T08:53:50.532Z,725.28
2017-12-25T08:54:51.004Z,725.25
2017-12-25T08:55:51.480Z,725.33
2017-12-25T08:56:51.941Z,725.24
2017-12-25T08:57:52.430Z,725.24
2017-12-25T08:58:52.894Z,725.25
2017-12-25T08:59:53.383Z,725.27
2017-12-25T09:00:53.845Z,725.26
2017-12-25T09:01:54.385Z,725.25
2017-12-25T09:02:54.814Z,725.27
2017-12-25T09:03:55.275Z,725.30
2017-12-25T09:04:55.765Z,725.28
2017-12-25T09:05:56.242Z,725.25
2017-12-25T09:06:56.721Z,725.34
2017-12-25T09:07:57.182Z,725.29
2017-12-25T09:08:57.674Z,725.35
2017-12-25T09:09:58.149Z,725.44
2017-12-25T09:10:58.616Z,725.31
2017-12-25T09:11:59.106Z,725.30
2017-12-25T09:12:59.584Z,725.29
2017-12-25T09:14:00.061Z,725.28
2017-12-25T09:15:00.528Z,725.26
2017-12-25T09:16:01.017Z,725.32
2017-12-25T09:17:01.530Z,725.35
2017-12-25T09:19:02.449Z,725.30
2017-12-25T09:21:03.392Z,725.29
2017-12-25T09:22:03.934Z,725.39
2017-12-25T09:23:04.359Z,725.35
2017-12-25T09:24:04.837Z,725.36
2017-12-25T09:26:05.791Z,725.31
2017-12-25T09:27:06.273Z,725.26
2017-12-25T09:28:06.732Z,725.37
2017-12-25T09:29:07.221Z,725.34
2017-12-25T09:30:07.699Z,725.31
2017-12-25T09:31:08.174Z,725.32
2017-12-25T09:32:08.651Z,725.34
2017-12-25T09:33:09.126Z,725.40
2017-12-25T09:34:09.600Z,725.35
2017-12-25T09:35:10.078Z,725.36
2017-12-25T09:36:10.539Z,725.34
2017-12-25T09:37:11.077Z,725.36
2017-12-25T09:38:11.502Z,725.43
2017-12-25T09:39:11.977Z,725.40
2017-12-25T09:40:12.438Z,725.40
2017-12-25T09:41:12.926Z,725.39
2017-12-25T09:43:13.876Z,725.34
2017-12-25T09:44:14.336Z,725.40
2017-12-25T09:45:14.822Z,725.39
2017-12-25T09:46:15.295Z,725.37
2017-12-25T09:47:16.058Z,725.34
2017-12-25T09:48:16.231Z,725.37
2017-12-25T09:49:16.708Z,725.39
2017-12-25T09:50:17.180Z,725.40
2017-12-25T09:51:17.665Z,725.41
2017-12-25T09:52:18.175Z,725.34
2017-12-25T09:53:18.611Z,725.39
2017-12-25T09:54:19.085Z,725.28
2017-12-25T09:55:19.558Z,725.23
2017-12-25T09:56:20.033Z,725.30
2017-12-25T09:57:20.557Z,725.27
2017-12-25T09:58:20.981Z,725.24
2017-12-25T09:59:21.454Z,725.33
2017-12-25T10:00:21.918Z,725.23
2017-12-25T10:01:22.404Z,725.14
2017-12-25T10:02:22.930Z,725.22
2017-12-25T10:03:23.342Z,725.27
2017-12-25T10:04:23.830Z,725.22
2017-12-25T10:05:24.304Z,725.24
2017-12-25T10:07:25.293Z,725.25
2017-12-25T10:08:25.730Z,725.28
2017-12-25T10:09:26.205Z,725.17
2017-12-25T10:10:26.668Z,725.14
2017-12-25T10:13:28.109Z,725.17
2017-12-25T10:14:28.588Z,725.14
2017-12-25T10:15:29.066Z,725.18
2017-12-25T10:16:29.542Z,725.20
2017-12-25T10:17:30.004Z,725.16
2017-12-25T10:18:30.494Z,725.09
2017-12-25T10:19:30.971Z,725.09
2017-12-25T10:20:31.435Z,725.11
2017-12-25T10:21:31.928Z,725.12
2017-12-25T10:23:32.883Z,725.10
2017-12-25T10:24:33.361Z,725.02
2017-12-25T10:25:33.836Z,725.00
2017-12-25T10:26:34.315Z,725.02
2017-12-25T10:27:34.832Z,724.97
2017-12-25T10:28:35.273Z,725.05
2017-12-25T10:30:36.229Z,725.01
2017-12-25T10:32:37.184Z,725.02
2017-12-25T10:33:37.662Z,724.95
2017-12-25T10:34:38.126Z,724.91
2017-12-25T10:35:38.619Z,724.93
2017-12-25T10:36:39.097Z,724.85
2017-12-25T10:37:39.624Z,724.94
2017-12-25T10:38:40.051Z,725.02
2017-12-25T10:40:41.004Z,724.91
2017-12-25T10:41:41.467Z,724.88
2017-12-25T10:42:42.008Z,724.94
2017-12-25T10:43:42.435Z,724.92
2017-12-25T10:44:42.906Z,724.86
2017-12-25T10:45:43.388Z,724.86
2017-12-25T10:46:43.851Z,724.93
2017-12-25T10:47:44.390Z,724.84
2017-12-25T10:49:45.279Z,724.79
2017-12-25T10:50:45.765Z,724.78
2017-12-25T10:52:46.702Z,724.67
2017-12-25T10:53:47.190Z,724.74
2017-12-25T10:54:47.665Z,724.69
2017-12-25T10:55:48.139Z,724.76
2017-12-25T10:56:48.615Z,724.76
2017-12-25T10:57:49.141Z,724.80
2017-12-25T10:58:49.562Z,724.73
2017-12-25T10:59:50.025Z,724.75
2017-12-25T11:01:50.983Z,724.59
2017-12-25T11:02:51.458Z,724.65
2017-12-25T11:03:51.934Z,724.58
2017-12-25T11:04:52.393Z,724.60
2017-12-25T11:05:52.880Z,724.64
2017-12-25T11:06:53.352Z,724.54
2017-12-25T11:07:53.879Z,724.58
2017-12-25T11:09:54.779Z,724.50
2017-12-25T11:10:55.250Z,724.51
2017-12-25T11:11:55.711Z,724.46
2017-12-25T11:12:56.186Z,724.48
2017-12-25T11:14:57.147Z,724.50
2017-12-25T11:15:57.622Z,724.52
2017-12-25T11:16:58.099Z,724.42
2017-12-25T11:17:58.622Z,724.44
2017-12-25T11:19:59.523Z,724.45
2017-12-25T11:20:59.997Z,724.47
2017-12-25T11:23:00.953Z,724.52
2017-12-25T11:24:01.426Z,724.44
2017-12-25T11:25:01.898Z,724.41
2017-12-25T11:26:02.375Z,724.46
2017-12-25T11:27:02.853Z,724.45
2017-12-25T11:28:03.380Z,724.44
2017-12-25T11:29:03.792Z,724.45
2017-12-25T11:30:04.284Z,724.42
2017-12-25T11:31:04.757Z,724.43
2017-12-25T11:32:05.237Z,724.42
2017-12-25T11:33:05.764Z,724.42
2017-12-25T11:35:06.668Z,724.43
2017-12-25T11:36:07.132Z,724.31
2017-12-25T11:37:07.624Z,724.27
2017-12-25T11:39:08.574Z,724.28
2017-12-25T11:40:09.058Z,724.26
2017-12-25T11:41:09.534Z,724.32
2017-12-25T11:42:10.013Z,724.28
2017-12-25T11:43:10.476Z,724.32
2017-12-25T11:44:10.967Z,724.22
2017-12-25T11:45:11.446Z,724.18
2017-12-25T11:48:12.879Z,724.15
2017-12-25T11:49:13.356Z,724.15
2017-12-25T11:50:13.841Z,724.11
2017-12-25T11:51:14.311Z,724.15
2017-12-25T11:52:14.789Z,724.20
2017-12-25T11:53:15.265Z,724.13
2017-12-25T11:54:15.743Z,724.17
2017-12-25T11:55:16.219Z,724.14
2017-12-25T11:56:16.696Z,724.16
2017-12-25T11:57:17.175Z,724.15
2017-12-25T11:58:17.647Z,724.14
2017-12-25T11:59:18.126Z,724.08
2017-12-25T12:00:18.589Z,724.08
2017-12-25T12:01:19.078Z,724.01
2017-12-25T12:02:19.553Z,723.98
2017-12-25T12:03:20.026Z,724.03
2017-12-25T12:04:20.503Z,724.02
2017-12-25T12:05:20.979Z,724.02
2017-12-25T12:06:21.452Z,723.97
2017-12-25T12:07:21.927Z,724.02
2017-12-25T12:10:23.350Z,724.02
2017-12-25T12:11:23.826Z,723.99
2017-12-25T12:12:24.286Z,724.01
2017-12-25T12:13:24.758Z,723.96
2017-12-25T12:14:25.247Z,723.99
2017-12-25T12:15:25.814Z,724.00
2017-12-25T12:17:26.667Z,723.95
2017-12-25T12:18:27.127Z,723.95
2017-12-25T12:19:27.614Z,723.94
2017-12-25T12:20:28.143Z,723.91
2017-12-25T12:21:28.549Z,723.99
2017-12-25T12:22:29.034Z,723.97
2017-12-25T12:23:29.509Z,723.89
2017-12-25T12:24:29.986Z,723.92
2017-12-25T12:25:30.445Z,723.85
2017-12-25T12:26:30.931Z,723.88
2017-12-25T12:27:31.404Z,723.86
2017-12-25T12:28:31.876Z,723.89
2017-12-25T12:29:32.350Z,723.87
2017-12-25T12:30:44.550Z,723.83
2017-12-25T12:31:33.299Z,723.81
2017-12-25T12:32:33.777Z,723.82
2017-12-25T12:33:34.249Z,723.87
2017-12-25T12:34:34.722Z,723.84
2017-12-25T12:35:35.236Z,723.73
2017-12-25T12:36:35.675Z,723.80
2017-12-25T12:37:36.149Z,723.76
2017-12-25T12:38:36.624Z,723.74
2017-12-25T12:39:37.100Z,723.70
2017-12-25T12:40:37.561Z,723.77
2017-12-25T12:42:38.526Z,723.75
2017-12-25T12:43:39.003Z,723.71
2017-12-25T12:44:39.516Z,723.76
2017-12-25T12:45:39.954Z,723.76
2017-12-25T12:46:40.431Z,723.71
2017-12-25T12:48:41.384Z,723.72
2017-12-25T12:49:41.861Z,723.73
2017-12-25T12:51:42.815Z,723.71
2017-12-25T12:52:43.279Z,723.68
2017-12-25T12:53:43.757Z,723.68
2017-12-25T12:54:44.247Z,723.66
2017-12-25T12:55:44.726Z,723.69
2017-12-25T12:56:45.200Z,723.65
2017-12-25T12:57:45.686Z,723.66
2017-12-25T12:58:46.157Z,723.66
2017-12-25T13:00:47.113Z,723.62
2017-12-25T13:01:47.590Z,723.58
2017-12-25T13:02:48.067Z,723.63
2017-12-25T13:03:48.545Z,723.61
2017-12-25T13:04:49.023Z,723.59
2017-12-25T13:05:49.501Z,723.63
2017-12-25T13:07:50.463Z,723.49
2017-12-25T13:08:50.920Z,723.51
2017-12-25T13:09:51.410Z,723.56
2017-12-25T13:10:51.936Z,723.49
2017-12-25T13:11:52.362Z,723.47
2017-12-25T13:12:52.826Z,723.46
2017-12-25T13:13:53.315Z,723.44
2017-12-25T13:14:53.798Z,723.52
2017-12-25T13:15:54.322Z,723.47
2017-12-25T13:17:55.217Z,723.48
2017-12-25T13:18:55.693Z,723.51
2017-12-25T13:19:56.170Z,723.52
2017-12-25T13:20:56.628Z,723.46
2017-12-25T13:21:57.118Z,723.46
2017-12-25T13:23:58.053Z,723.41
2017-12-25T13:24:58.540Z,723.44
2017-12-25T13:25:59.070Z,723.38
2017-12-25T13:26:59.488Z,723.38
2017-12-25T13:27:59.962Z,723.33
2017-12-25T13:29:00.438Z,723.37
2017-12-25T13:30:00.914Z,723.35
2017-12-25T13:32:01.853Z,723.36
2017-12-25T13:33:02.328Z,723.36
2017-12-25T13:34:02.800Z,723.32
2017-12-25T13:35:03.262Z,723.37
2017-12-25T13:36:03.756Z,723.31
2017-12-25T13:37:04.222Z,723.34
2017-12-25T13:38:04.698Z,723.35
2017-12-25T13:40:05.642Z,723.31
2017-12-25T13:41:06.118Z,723.29
2017-12-25T13:42:06.589Z,723.30
2017-12-25T13:43:07.052Z,723.28
2017-12-25T13:44:07.537Z,723.33
2017-12-25T13:45:07.998Z,723.30
2017-12-25T13:46:08.473Z,723.27
2017-12-25T13:47:08.960Z,723.32
2017-12-25T13:48:09.434Z,723.32
2017-12-25T13:49:09.908Z,723.28
2017-12-25T13:50:10.387Z,723.27
2017-12-25T13:51:10.896Z,723.32
2017-12-25T13:52:11.333Z,723.31
2017-12-25T13:53:11.814Z,723.25
2017-12-25T13:54:12.285Z,723.29
2017-12-25T13:55:12.758Z,723.25
2017-12-25T13:57:13.699Z,723.25
2017-12-25T13:58:14.185Z,723.21
2017-12-25T13:59:14.663Z,723.27
2017-12-25T14:00:15.125Z,723.29
2017-12-25T14:01:15.664Z,723.25
2017-12-25T14:02:16.089Z,723.21
2017-12-25T14:03:16.565Z,723.22
2017-12-25T14:04:17.045Z,723.24
2017-12-25T14:05:17.523Z,723.25
2017-12-25T14:06:17.998Z,723.25
2017-12-25T14:07:18.462Z,723.22
2017-12-25T14:08:18.950Z,723.22
2017-12-25T14:09:19.426Z,723.27
2017-12-25T14:10:19.906Z,723.19
2017-12-25T14:11:20.382Z,723.22
2017-12-25T14:12:20.847Z,723.20
2017-12-25T14:13:21.336Z,723.23
2017-12-25T14:14:21.813Z,723.17
2017-12-25T14:15:22.290Z,723.17
2017-12-25T14:16:22.768Z,723.15
2017-12-25T14:17:23.244Z,723.20
2017-12-25T14:18:23.709Z,723.20
2017-12-25T14:20:24.676Z,723.24
2017-12-25T14:21:25.203Z,723.22
2017-12-25T14:22:25.628Z,723.16
2017-12-25T14:23:26.103Z,723.18